Terminal Aerodrome Forecast
Issued by NWS

Home | Current Version | Previous Version | Text Only | Print | Product List | Glossary Off
Versions: 1 2 3 4 5 6 7 8 9 10 11 12 13 14 15 16 17 18 19

000
FTUS43 KMPX 241100
TAFRNH
TAF
KRNH 241129Z 2412/2512 00000KT P6SM SCT070
     FM241500 15005KT P6SM FEW070 SCT250
     FM242100 17007KT P6SM FEW120 BKN200
     FM250100 16005KT P6SM BKN100
     FM250800 15006KT P6SM BKN060=

USA.gov is the U.S. government's official web portal to all federal, state and local government web resources and services.